Aviation Digital Data Service (ADDS)

Output produced by METARs form (2001 UTC 06 July 2015)
found at http://aviationweather.gov/adds/metars/
 
KCDW 061953Z 18009KT 10SM SCT048 SCT080 28/18 A3012 RMK AO2 SLP202 T02830183
KMMU 061945Z 13009KT 10SM BKN040 BKN050 29/21 A3013
KFWN 061953Z AUTO VRB03KT 10SM OVC070 27/19 A3012 RMK AO2 SLP197 T02720194 $
KTEB 061951Z 17009KT 10SM BKN070 28/18 A3011 RMK AO2 SLP194 T02780183
KTEB 061930Z 0620/0718 19009KT P6SM FEW030 BKN080 BKN250 
     FM070100 16006KT P6SM SCT020 BKN100 
     FM070400 17005KT 4SM BR SCT006 BKN015 
     FM070700 17004KT 2SM BR BKN006 
     FM071200 18007KT 4SM BR SCT008 BKN015 BKN150 
     FM071400 19009KT 6SM BR VCSH SCT015 BKN050 
     PROB30 0714/0718 3SM TSRA BKN035CB
       
KEWR 061951Z 13010G16KT 100V160 10SM SCT050 SCT070 BKN140 BKN250 27/19 A3012 RMK AO2 SLP199 T02720194
KEWR 061954Z 0620/0724 13011KT P6SM VCSH FEW030 BKN070 BKN250 
     FM062100 14010KT P6SM FEW030 BKN070 BKN250 
     FM070200 15005KT P6SM SCT020 BKN100 
     FM070400 16005KT 4SM BR SCT007 BKN015 
     FM070700 18004KT 2SM BR BKN007 
     FM071200 18007KT 4SM BR SCT008 BKN015 BKN150 
     FM071400 20011KT 6SM BR VCSH SCT015 BKN050 
     PROB30 0714/0718 3SM TSRA BKN035CB 
     FM071800 22012KT P6SM BKN050
       
KDXR 061953Z 14006KT 8SM FEW080 27/19 A3015 RMK AO2 SLP208 T02670194
KHPN 061956Z 13008KT 10SM SCT080 27/19 A3014 RMK AO2 SLP200 T02720189
KHPN 061930Z 0620/0718 17008KT P6SM BKN080 BKN250 
     FM070100 14005KT P6SM SCT020 BKN100 
     FM070400 14004KT 4SM BR SCT006 BKN015 
     FM070700 14004KT 2SM BR BKN006 
     FM071200 16006KT 4SM BR SCT008 BKN015 BKN150 
     FM071400 17009KT 6SM BR VCSH SCT015 BKN050 
     PROB30 0714/0718 3SM TSRA BKN035CB AMD NOT SKED
       
KABE 061951Z 13006KT 10SM -RA SCT034 BKN043 BKN055 28/20 A3010 RMK AO2 RAB51 SLP188 P0000 T02780200
KABE 061745Z 0618/0718 16007KT P6SM VCSH OVC070 
     TEMPO 0620/0623 3SM TSRA OVC040CB 
     FM070000 14005KT P6SM VCSH BKN040 
     FM070500 14003KT 4SM BR SCT006 BKN150 
     FM070700 16003KT 2SM BR OVC006 
     FM071500 23004KT 6SM BR BKN015
       
KAVP 061954Z 20008KT 9SM FEW044 BKN060 28/18 A3010 RMK AO2 SLP186 T02830178
KAVP 061723Z 0618/0718 22007KT P6SM SCT060 OVC200 
     FM062000 21007KT P6SM BKN050 
     FM062200 19005KT P6SM OVC040 
     FM070100 15005KT P6SM SCT015 OVC025 
     FM070900 00000KT P6SM OVC015 
     FM071500 21006KT 6SM HZ BKN050
       
KSWF 061945Z 00000KT 6SM HZ SCT040 OVC070 27/21 A3014
KSWF 061930Z 0620/0724 22008KT P6SM SCT050 BKN250 
     FM062100 18007KT P6SM SCT050 BKN080 BKN250 
     FM070100 17007KT P6SM SCT020 BKN100 
     FM070500 16004KT 5SM BR BKN015 
     FM070900 16003KT 4SM BR SCT008 BKN012 
     FM071300 21006KT 5SM BR VCSH BKN050 
     PROB30 0714/0718 3SM TSRA BKN035CB 
     FM071800 23009KT P6SM BKN050 AMD NOT SKED
       
KMSV 061955Z AUTO 16007KT 10SM FEW026 SCT060 BKN090 25/19 A3017 RMK AO1
KPOU 061953Z AUTO 17005KT 10SM BKN039 28/19 A3011 RMK AO2 SLP192 T02780194
KPOU 061722Z 0618/0718 19007KT P6SM SCT040 BKN080 BKN200 
     FM070000 VRB03KT P6SM SCT020 BKN080 
     FM070500 VRB02KT 5SM BR BKN020 BKN040 OVC080 
     FM070900 VRB04KT 5SM -SHRA BR SCT008 OVC015 
     FM071400 18005KT P6SM VCSH BKN025 OVC050
       
KACY 061956Z 16008KT 10SM SCT022 28/22 A3011 RMK AO2 T02780217
KACY 061745Z 0618/0718 13009KT P6SM SCT050 BKN100 
     TEMPO 0618/0620 BKN030 
     FM070300 17006KT P6SM BKN150 
     FM070600 14002KT 3SM BR SCT007 BKN012 
     FM071300 21006KT 6SM BR SCT012 BKN050
       
KGON 061956Z 17009KT 10SM CLR 24/19 A3015 RMK AO2 SLP208 T02440194
KGON 061930Z 0620/0718 17008KT P6SM SCT050 BKN250 
     FM070100 17006KT P6SM SCT020 BKN100 
     FM070400 15004KT 4SM BR SCT004 BKN015 
     FM070700 14004KT 2SM BR BKN004 
     FM071000 14004KT 1SM BR BKN004 
     FM071300 16008KT 4SM BR SCT007 BKN015 
     FM071500 16008KT 6SM BR SCT015 BKN040